sensor_id;sensor_type;location;lat;lon;timestamp;pressure;altitude;pressure_sealevel;temperature;humidity
13235;BME280;6683;48.506;9.050;2024-01-30T00:01:41;99516.66;;;3.71;66.94
13235;BME280;6683;48.506;9.050;2024-01-30T00:04:44;99508.09;;;3.69;66.94
13235;BME280;6683;48.506;9.050;2024-01-30T00:07:45;99510.94;;;3.66;66.77
13235;BME280;6683;48.506;9.050;2024-01-30T00:10:47;99514.59;;;3.64;66.50
13235;BME280;6683;48.506;9.050;2024-01-30T00:13:51;99519.94;;;3.62;67.00
13235;BME280;6683;48.506;9.050;2024-01-30T00:16:53;99518.38;;;3.60;66.88
13235;BME280;6683;48.506;9.050;2024-01-30T00:19:55;99523.59;;;3.60;66.89
13235;BME280;6683;48.506;9.050;2024-01-30T00:22:57;99514.19;;;3.57;66.50
13235;BME280;6683;48.506;9.050;2024-01-30T00:25:59;99512.56;;;3.56;67.05
13235;BME280;6683;48.506;9.050;2024-01-30T00:29:02;99520.47;;;3.55;67.13
13235;BME280;6683;48.506;9.050;2024-01-30T00:32:05;99517.88;;;3.55;67.00
13235;BME280;6683;48.506;9.050;2024-01-30T00:35:08;99511.09;;;3.52;66.99
13235;BME280;6683;48.506;9.050;2024-01-30T00:38:11;99517.13;;;3.53;67.47
13235;BME280;6683;48.506;9.050;2024-01-30T00:41:14;99515.50;;;3.52;67.41
13235;BME280;6683;48.506;9.050;2024-01-30T00:44:17;99509.53;;;3.50;67.30
13235;BME280;6683;48.506;9.050;2024-01-30T00:47:19;99514.66;;;3.51;66.81
13235;BME280;6683;48.506;9.050;2024-01-30T00:50:21;99523.44;;;3.50;67.02
13235;BME280;6683;48.506;9.050;2024-01-30T00:53:23;99520.09;;;3.48;67.03
13235;BME280;6683;48.506;9.050;2024-01-30T00:56:25;99521.03;;;3.47;67.00
13235;BME280;6683;48.506;9.050;2024-01-30T00:59:29;99522.00;;;3.46;67.15
13235;BME280;6683;48.506;9.050;2024-01-30T01:02:31;99518.41;;;3.47;67.35
13235;BME280;6683;48.506;9.050;2024-01-30T01:05:33;99517.50;;;3.48;67.15
13235;BME280;6683;48.506;9.050;2024-01-30T01:08:35;99521.88;;;3.48;67.32
13235;BME280;6683;48.506;9.050;2024-01-30T01:11:37;99520.09;;;3.48;67.17
13235;BME280;6683;48.506;9.050;2024-01-30T01:14:41;99522.81;;;3.47;67.36
13235;BME280;6683;48.506;9.050;2024-01-30T01:17:43;99524.47;;;3.48;67.51
13235;BME280;6683;48.506;9.050;2024-01-30T01:20:45;99527.94;;;3.48;67.49
13235;BME280;6683;48.506;9.050;2024-01-30T01:23:47;99530.53;;;3.48;67.27
13235;BME280;6683;48.506;9.050;2024-01-30T01:26:49;99525.41;;;3.47;67.76
13235;BME280;6683;48.506;9.050;2024-01-30T01:29:52;99518.41;;;3.47;67.35
13235;BME280;6683;48.506;9.050;2024-01-30T01:32:55;99521.88;;;3.48;67.81
13235;BME280;6683;48.506;9.050;2024-01-30T01:35:58;99522.00;;;3.46;67.71
13235;BME280;6683;48.506;9.050;2024-01-30T01:39:00;99523.03;;;3.44;67.07
13235;BME280;6683;48.506;9.050;2024-01-30T01:42:03;99528.56;;;3.39;67.43
13235;BME280;6683;48.506;9.050;2024-01-30T01:45:08;99527.84;;;3.37;67.41
13235;BME280;6683;48.506;9.050;2024-01-30T01:48:10;99530.59;;;3.36;67.66
13235;BME280;6683;48.506;9.050;2024-01-30T01:51:13;99523.78;;;3.33;67.23
13235;BME280;6683;48.506;9.050;2024-01-30T01:54:16;99524.72;;;3.32;67.28
13235;BME280;6683;48.506;9.050;2024-01-30T01:57:18;99524.00;;;3.30;67.11
13235;BME280;6683;48.506;9.050;2024-01-30T02:00:22;99531.22;;;3.27;66.96
13235;BME280;6683;48.506;9.050;2024-01-30T02:03:25;99522.66;;;3.24;67.26
13235;BME280;6683;48.506;9.050;2024-01-30T02:06:27;99531.41;;;3.23;67.77
13235;BME280;6683;48.506;9.050;2024-01-30T02:09:30;99526.13;;;3.25;67.67
13235;BME280;6683;48.506;9.050;2024-01-30T02:12:32;99521.81;;;3.24;67.50
13235;BME280;6683;48.506;9.050;2024-01-30T02:15:35;99518.38;;;3.23;67.53
13235;BME280;6683;48.506;9.050;2024-01-30T02:18:37;99515.03;;;3.21;67.36
13235;BME280;6683;48.506;9.050;2024-01-30T02:21:45;99519.44;;;3.21;67.25
13235;BME280;6683;48.506;9.050;2024-01-30T02:24:48;99516.94;;;3.19;67.50
13235;BME280;6683;48.506;9.050;2024-01-30T02:27:50;99516.19;;;3.17;67.23
13235;BME280;6683;48.506;9.050;2024-01-30T02:30:52;99517.28;;;3.15;67.38
13235;BME280;6683;48.506;9.050;2024-01-30T02:33:54;99525.19;;;3.13;67.44
13235;BME280;6683;48.506;9.050;2024-01-30T02:36:57;99521.84;;;3.11;67.68
13235;BME280;6683;48.506;9.050;2024-01-30T02:39:59;99511.41;;;3.11;67.82
13235;BME280;6683;48.506;9.050;2024-01-30T02:43:03;99521.00;;;3.11;67.54
13235;BME280;6683;48.506;9.050;2024-01-30T02:46:05;99521.25;;;3.08;67.56
13235;BME280;6683;48.506;9.050;2024-01-30T02:49:07;99514.47;;;3.05;67.33
13235;BME280;6683;48.506;9.050;2024-01-30T02:52:10;99517.28;;;3.02;67.14
13235;BME280;6683;48.506;9.050;2024-01-30T02:55:12;99515.72;;;3.00;67.39
13235;BME280;6683;48.506;9.050;2024-01-30T02:58:14;99515.81;;;2.98;67.40
13235;BME280;6683;48.506;9.050;2024-01-30T03:01:16;99522.81;;;2.98;67.51
13235;BME280;6683;48.506;9.050;2024-01-30T03:04:18;99512.47;;;2.96;67.55
13235;BME280;6683;48.506;9.050;2024-01-30T03:07:22;99510.00;;;2.95;67.77
13235;BME280;6683;48.506;9.050;2024-01-30T03:10:24;99510.84;;;2.95;67.81
13235;BME280;6683;48.506;9.050;2024-01-30T03:13:26;99510.94;;;2.94;67.24
13235;BME280;6683;48.506;9.050;2024-01-30T03:16:28;99510.94;;;2.94;67.66
13235;BME280;6683;48.506;9.050;2024-01-30T03:19:30;99507.69;;;2.90;67.18
13235;BME280;6683;48.506;9.050;2024-01-30T03:22:34;99514.06;;;2.86;67.13
13235;BME280;6683;48.506;9.050;2024-01-30T03:25:36;99515.09;;;2.84;67.26
13235;BME280;6683;48.506;9.050;2024-01-30T03:28:38;99517.81;;;2.82;67.42
13235;BME280;6683;48.506;9.050;2024-01-30T03:31:40;99522.31;;;2.80;67.60
13235;BME280;6683;48.506;9.050;2024-01-30T03:34:43;99516.38;;;2.78;67.30
13235;BME280;6683;48.506;9.050;2024-01-30T03:37:46;99508.66;;;2.77;67.20
13235;BME280;6683;48.506;9.050;2024-01-30T03:40:48;99524.41;;;2.75;67.28
13235;BME280;6683;48.506;9.050;2024-01-30T03:43:50;99522.75;;;2.74;67.70
13235;BME280;6683;48.506;9.050;2024-01-30T03:46:52;99514.19;;;2.72;67.41
13235;BME280;6683;48.506;9.050;2024-01-30T03:49:54;99518.56;;;2.72;67.61
13235;BME280;6683;48.506;9.050;2024-01-30T03:52:58;99520.44;;;2.70;67.66
13235;BME280;6683;48.506;9.050;2024-01-30T03:56:00;99516.19;;;2.69;67.67
13235;BME280;6683;48.506;9.050;2024-01-30T03:59:02;99523.28;;;2.67;67.44
13235;BME280;6683;48.506;9.050;2024-01-30T04:02:04;99522.44;;;2.66;67.53
13235;BME280;6683;48.506;9.050;2024-01-30T04:05:07;99520.75;;;2.65;67.82
13235;BME280;6683;48.506;9.050;2024-01-30T04:08:11;99520.00;;;2.63;67.64
13235;BME280;6683;48.506;9.050;2024-01-30T04:11:13;99524.50;;;2.61;67.72
13235;BME280;6683;48.506;9.050;2024-01-30T04:14:15;99528.91;;;2.61;67.99
13235;BME280;6683;48.506;9.050;2024-01-30T04:17:17;99510.84;;;2.58;67.77
13235;BME280;6683;48.506;9.050;2024-01-30T04:20:19;99522.19;;;2.57;67.92
13235;BME280;6683;48.506;9.050;2024-01-30T04:23:22;99515.34;;;2.56;68.04
13235;BME280;6683;48.506;9.050;2024-01-30T04:26:24;99524.81;;;2.57;67.77
13235;BME280;6683;48.506;9.050;2024-01-30T04:29:26;99517.94;;;2.56;67.89
13235;BME280;6683;48.506;9.050;2024-01-30T04:32:28;99523.16;;;2.56;68.14
13235;BME280;6683;48.506;9.050;2024-01-30T04:35:30;99526.59;;;2.56;67.90
13235;BME280;6683;48.506;9.050;2024-01-30T04:38:34;99518.88;;;2.55;67.97
13235;BME280;6683;48.506;9.050;2024-01-30T04:41:36;99519.72;;;2.55;68.28
13235;BME280;6683;48.506;9.050;2024-01-30T04:44:38;99520.66;;;2.54;67.68
13235;BME280;6683;48.506;9.050;2024-01-30T04:47:40;99529.50;;;2.52;67.51
13235;BME280;6683;48.506;9.050;2024-01-30T04:50:42;99526.19;;;2.50;67.73
13235;BME280;6683;48.506;9.050;2024-01-30T04:53:46;99528.97;;;2.47;67.62
13235;BME280;6683;48.506;9.050;2024-01-30T04:56:48;99528.25;;;2.44;67.56
13235;BME280;6683;48.506;9.050;2024-01-30T04:59:50;99528.47;;;2.41;67.99
13235;BME280;6683;48.506;9.050;2024-01-30T05:02:52;99523.34;;;2.40;67.54
13235;BME280;6683;48.506;9.050;2024-01-30T05:05:54;99532.22;;;2.37;67.77
13235;BME280;6683;48.506;9.050;2024-01-30T05:08:57;99536.69;;;2.35;68.07
13235;BME280;6683;48.506;9.050;2024-01-30T05:11:59;99531.50;;;2.35;68.08
13235;BME280;6683;48.506;9.050;2024-01-30T05:15:02;99527.19;;;2.34;67.86
13235;BME280;6683;48.506;9.050;2024-01-30T05:18:04;99527.19;;;2.34;67.94
13235;BME280;6683;48.506;9.050;2024-01-30T05:21:06;99522.00;;;2.34;67.68
13235;BME280;6683;48.506;9.050;2024-01-30T05:24:10;99528.97;;;2.34;67.89
13235;BME280;6683;48.506;9.050;2024-01-30T05:27:12;99536.78;;;2.34;67.69
13235;BME280;6683;48.506;9.050;2024-01-30T05:30:15;99540.34;;;2.33;67.56
13235;BME280;6683;48.506;9.050;2024-01-30T05:33:17;99537.84;;;2.31;67.45
13235;BME280;6683;48.506;9.050;2024-01-30T05:36:19;99530.03;;;2.31;68.15
13235;BME280;6683;48.506;9.050;2024-01-30T05:39:23;99536.16;;;2.30;68.06
13235;BME280;6683;48.506;9.050;2024-01-30T05:42:26;99526.69;;;2.29;67.59
13235;BME280;6683;48.506;9.050;2024-01-30T05:45:29;99528.44;;;2.29;67.90
13235;BME280;6683;48.506;9.050;2024-01-30T05:48:31;99538.03;;;2.28;67.59
13235;BME280;6683;48.506;9.050;2024-01-30T05:51:33;99533.75;;;2.27;67.83
13235;BME280;6683;48.506;9.050;2024-01-30T05:54:36;99531.13;;;2.27;67.59
13235;BME280;6683;48.506;9.050;2024-01-30T05:57:38;99535.53;;;2.27;67.60
13235;BME280;6683;48.506;9.050;2024-01-30T06:00:40;99540.81;;;2.25;67.77
13235;BME280;6683;48.506;9.050;2024-01-30T06:03:43;99539.16;;;2.24;67.87
13235;BME280;6683;48.506;9.050;2024-01-30T06:06:45;99543.53;;;2.24;67.66
13235;BME280;6683;48.506;9.050;2024-01-30T06:09:48;99544.50;;;2.23;67.71
13235;BME280;6683;48.506;9.050;2024-01-30T06:12:50;99545.41;;;2.22;67.58
13235;BME280;6683;48.506;9.050;2024-01-30T06:15:52;99545.53;;;2.20;67.71
13235;BME280;6683;48.506;9.050;2024-01-30T06:18:54;99539.59;;;2.18;67.62
13235;BME280;6683;48.506;9.050;2024-01-30T06:21:58;99544.06;;;2.16;67.87
13235;BME280;6683;48.506;9.050;2024-01-30T06:25:01;99552.78;;;2.15;67.90
13235;BME280;6683;48.506;9.050;2024-01-30T06:28:04;99540.72;;;2.14;67.75
13235;BME280;6683;48.506;9.050;2024-01-30T06:31:06;99551.31;;;2.11;67.75
13235;BME280;6683;48.506;9.050;2024-01-30T06:34:09;99551.53;;;2.08;67.84
13235;BME280;6683;48.506;9.050;2024-01-30T06:37:12;99556.94;;;2.05;67.76
13235;BME280;6683;48.506;9.050;2024-01-30T06:40:15;99559.53;;;2.05;67.85
13235;BME280;6683;48.506;9.050;2024-01-30T06:43:17;99550.16;;;2.03;67.71
13235;BME280;6683;48.506;9.050;2024-01-30T06:46:19;99551.94;;;2.02;67.81
13235;BME280;6683;48.506;9.050;2024-01-30T06:49:21;99548.56;;;2.00;68.03
13235;BME280;6683;48.506;9.050;2024-01-30T06:52:23;99552.03;;;2.01;67.95
13235;BME280;6683;48.506;9.050;2024-01-30T06:55:27;99558.19;;;2.00;67.97
13235;BME280;6683;48.506;9.050;2024-01-30T06:58:29;99558.19;;;2.00;68.00
13235;BME280;6683;48.506;9.050;2024-01-30T07:01:31;99562.44;;;2.01;67.90
13235;BME280;6683;48.506;9.050;2024-01-30T07:04:33;99557.22;;;2.01;68.03
13235;BME280;6683;48.506;9.050;2024-01-30T07:07:35;99555.34;;;2.03;68.31
13235;BME280;6683;48.506;9.050;2024-01-30T07:10:39;99568.31;;;2.04;68.35
13235;BME280;6683;48.506;9.050;2024-01-30T07:13:41;99569.84;;;2.07;68.03
13235;BME280;6683;48.506;9.050;2024-01-30T07:16:43;99578.41;;;2.09;67.84
13235;BME280;6683;48.506;9.050;2024-01-30T07:19:45;99579.97;;;2.11;68.35
13235;BME280;6683;48.506;9.050;2024-01-30T07:22:47;99575.59;;;2.12;68.00
13235;BME280;6683;48.506;9.050;2024-01-30T07:25:51;99572.91;;;2.13;68.11
13235;BME280;6683;48.506;9.050;2024-01-30T07:28:53;99572.72;;;2.16;68.17
13235;BME280;6683;48.506;9.050;2024-01-30T07:31:55;99572.59;;;2.18;68.36
13235;BME280;6683;48.506;9.050;2024-01-30T07:34:57;99579.16;;;2.23;68.55
13235;BME280;6683;48.506;9.050;2024-01-30T07:37:59;99570.44;;;2.24;68.32
13235;BME280;6683;48.506;9.050;2024-01-30T07:41:02;99563.25;;;2.28;68.32
13235;BME280;6683;48.506;9.050;2024-01-30T07:44:04;99570.03;;;2.30;68.05
13235;BME280;6683;48.506;9.050;2024-01-30T07:47:06;99564.69;;;2.32;67.96
13235;BME280;6683;48.506;9.050;2024-01-30T07:50:09;99562.75;;;2.35;68.22
13235;BME280;6683;48.506;9.050;2024-01-30T07:53:11;99562.41;;;2.40;68.52
13235;BME280;6683;48.506;9.050;2024-01-30T07:56:15;99561.09;;;2.47;68.13
13235;BME280;6683;48.506;9.050;2024-01-30T07:59:18;99572.78;;;2.54;68.27
13235;BME280;6683;48.506;9.050;2024-01-30T08:02:22;99579.34;;;2.60;68.59
13235;BME280;6683;48.506;9.050;2024-01-30T08:05:24;99573.72;;;2.66;68.52
13235;BME280;6683;48.506;9.050;2024-01-30T08:08:26;99577.59;;;2.73;68.70
13235;BME280;6683;48.506;9.050;2024-01-30T08:11:30;99583.31;;;2.78;68.46
13235;BME280;6683;48.506;9.050;2024-01-30T08:14:32;99577.59;;;2.85;68.48
13235;BME280;6683;48.506;9.050;2024-01-30T08:17:34;99575.41;;;2.92;68.54
13235;BME280;6683;48.506;9.050;2024-01-30T08:20:36;99566.22;;;2.99;68.42
13235;BME280;6683;48.506;9.050;2024-01-30T08:23:38;99568.31;;;3.06;68.81
13235;BME280;6683;48.506;9.050;2024-01-30T08:26:42;99568.81;;;3.11;68.79
13235;BME280;6683;48.506;9.050;2024-01-30T08:29:44;99574.44;;;3.18;68.55
13235;BME280;6683;48.506;9.050;2024-01-30T08:32:46;99574.00;;;3.24;68.51
13235;BME280;6683;48.506;9.050;2024-01-30T08:35:48;99566.59;;;3.31;68.70
13235;BME280;6683;48.506;9.050;2024-01-30T08:38:50;99567.00;;;3.37;68.77
13235;BME280;6683;48.506;9.050;2024-01-30T08:41:53;99570.03;;;3.44;68.66
13235;BME280;6683;48.506;9.050;2024-01-30T08:44:55;99572.06;;;3.51;68.34
13235;BME280;6683;48.506;9.050;2024-01-30T08:47:58;99571.88;;;3.54;68.28
13235;BME280;6683;48.506;9.050;2024-01-30T08:51:00;99574.88;;;3.61;69.11
13235;BME280;6683;48.506;9.050;2024-01-30T08:54:02;99566.63;;;3.67;69.33
13235;BME280;6683;48.506;9.050;2024-01-30T08:57:06;99569.50;;;3.75;68.58
13235;BME280;6683;48.506;9.050;2024-01-30T09:00:10;99575.84;;;3.83;68.92
13235;BME280;6683;48.506;9.050;2024-01-30T09:03:12;99573.50;;;3.91;68.88
13235;BME280;6683;48.506;9.050;2024-01-30T09:06:14;99579.72;;;4.01;68.93
13235;BME280;6683;48.506;9.050;2024-01-30T09:09:16;99575.63;;;4.10;68.77
13235;BME280;6683;48.506;9.050;2024-01-30T09:12:19;99572.44;;;4.18;69.04
13235;BME280;6683;48.506;9.050;2024-01-30T09:15:22;99584.13;;;4.25;68.73
13235;BME280;6683;48.506;9.050;2024-01-30T09:18:24;99573.91;;;4.33;68.90
13235;BME280;6683;48.506;9.050;2024-01-30T09:21:26;99580.03;;;4.44;69.18
13235;BME280;6683;48.506;9.050;2024-01-30T09:24:28;99577.56;;;4.54;69.32
13235;BME280;6683;48.506;9.050;2024-01-30T09:27:31;99576.75;;;4.64;69.72
13235;BME280;6683;48.506;9.050;2024-01-30T09:30:33;99572.38;;;4.76;69.84
13235;BME280;6683;48.506;9.050;2024-01-30T09:33:35;99580.25;;;4.87;69.50
13235;BME280;6683;48.506;9.050;2024-01-30T09:36:37;99576.09;;;4.96;69.56
13235;BME280;6683;48.506;9.050;2024-01-30T09:39:39;99574.44;;;5.06;69.57
13235;BME280;6683;48.506;9.050;2024-01-30T09:42:43;99575.28;;;5.17;70.11
13235;BME280;6683;48.506;9.050;2024-01-30T09:45:48;99578.59;;;5.30;69.21
13235;BME280;6683;48.506;9.050;2024-01-30T09:48:52;99579.31;;;5.43;69.64
13235;BME280;6683;48.506;9.050;2024-01-30T09:51:54;99577.50;;;5.55;69.91
13235;BME280;6683;48.506;9.050;2024-01-30T09:55:00;99568.78;;;5.65;69.79
13235;BME280;6683;48.506;9.050;2024-01-30T09:58:03;99574.72;;;5.79;69.53
13235;BME280;6683;48.506;9.050;2024-01-30T10:01:06;99576.28;;;5.92;69.78
13235;BME280;6683;48.506;9.050;2024-01-30T10:04:08;99573.63;;;6.03;69.56
13235;BME280;6683;48.506;9.050;2024-01-30T10:07:10;99572.59;;;6.15;69.48
13235;BME280;6683;48.506;9.050;2024-01-30T10:10:13;99571.50;;;6.29;69.83
13235;BME280;6683;48.506;9.050;2024-01-30T10:13:17;99575.88;;;6.39;69.58
13235;BME280;6683;48.506;9.050;2024-01-30T10:16:19;99579.38;;;6.50;69.83
13235;BME280;6683;48.506;9.050;2024-01-30T10:19:21;99570.16;;;6.55;69.91
13235;BME280;6683;48.506;9.050;2024-01-30T10:22:23;99578.81;;;6.67;70.02
13235;BME280;6683;48.506;9.050;2024-01-30T10:25:25;99577.94;;;6.77;69.93
13235;BME280;6683;48.506;9.050;2024-01-30T10:28:29;99570.81;;;6.89;69.81
13235;BME280;6683;48.506;9.050;2024-01-30T10:31:31;99567.13;;;7.01;69.67
13235;BME280;6683;48.506;9.050;2024-01-30T10:34:34;99563.34;;;7.14;70.00
13235;BME280;6683;48.506;9.050;2024-01-30T10:37:36;99561.75;;;7.33;69.76
13235;BME280;6683;48.506;9.050;2024-01-30T10:40:39;99561.25;;;7.48;69.72
13235;BME280;6683;48.506;9.050;2024-01-30T10:43:54;99568.22;;;7.59;69.37
13235;BME280;6683;48.506;9.050;2024-01-30T10:47:06;99550.94;;;7.66;69.48
13235;BME280;6683;48.506;9.050;2024-01-30T10:50:11;99551.22;;;7.72;69.47
13235;BME280;6683;48.506;9.050;2024-01-30T10:53:13;99551.50;;;7.79;69.41
13235;BME280;6683;48.506;9.050;2024-01-30T10:56:16;99550.13;;;7.84;69.37
13235;BME280;6683;48.506;9.050;2024-01-30T10:59:21;99541.59;;;7.92;69.49
13235;BME280;6683;48.506;9.050;2024-01-30T11:02:25;99547.41;;;8.05;69.67
13235;BME280;6683;48.506;9.050;2024-01-30T11:05:28;99548.09;;;8.17;69.33
13235;BME280;6683;48.506;9.050;2024-01-30T11:08:32;99540.63;;;8.22;69.02
13235;BME280;6683;48.506;9.050;2024-01-30T11:11:49;99537.47;;;8.28;69.24
13235;BME280;6683;48.506;9.050;2024-01-30T11:15:04;99536.09;;;8.33;69.10
13235;BME280;6683;48.506;9.050;2024-01-30T11:18:07;99530.41;;;8.38;69.32
13235;BME280;6683;48.506;9.050;2024-01-30T11:21:09;99528.75;;;8.46;69.14
13235;BME280;6683;48.506;9.050;2024-01-30T11:24:15;99535.91;;;8.54;69.03
13235;BME280;6683;48.506;9.050;2024-01-30T11:27:17;99528.97;;;8.62;69.24
13235;BME280;6683;48.506;9.050;2024-01-30T11:30:24;99535.06;;;8.72;69.13
13235;BME280;6683;48.506;9.050;2024-01-30T11:33:29;99533.09;;;8.84;69.06
13235;BME280;6683;48.506;9.050;2024-01-30T11:36:32;99523.06;;;8.97;68.95
13235;BME280;6683;48.506;9.050;2024-01-30T11:39:38;99528.25;;;9.16;69.31
13235;BME280;6683;48.506;9.050;2024-01-30T11:42:43;99534.28;;;9.36;69.40
13235;BME280;6683;48.506;9.050;2024-01-30T11:45:46;99517.94;;;9.59;69.44
13235;BME280;6683;48.506;9.050;2024-01-30T11:48:49;99510.44;;;9.82;69.03
13235;BME280;6683;48.506;9.050;2024-01-30T11:51:52;99509.47;;;10.01;69.04
13235;BME280;6683;48.506;9.050;2024-01-30T11:54:55;99501.31;;;10.12;68.17
13235;BME280;6683;48.506;9.050;2024-01-30T11:57:57;99499.47;;;10.22;68.35
13235;BME280;6683;48.506;9.050;2024-01-30T12:01:01;99482.84;;;10.29;68.18
13235;BME280;6683;48.506;9.050;2024-01-30T12:04:03;99491.66;;;10.38;68.25
13235;BME280;6683;48.506;9.050;2024-01-30T12:07:09;99486.59;;;10.44;67.84
13235;BME280;6683;48.506;9.050;2024-01-30T12:10:12;99488.91;;;10.48;67.91
13235;BME280;6683;48.506;9.050;2024-01-30T12:13:14;99477.41;;;10.49;68.26
13235;BME280;6683;48.506;9.050;2024-01-30T12:16:19;99472.63;;;10.52;68.00
13235;BME280;6683;48.506;9.050;2024-01-30T12:19:24;99470.50;;;10.56;67.96
13235;BME280;6683;48.506;9.050;2024-01-30T12:22:26;99467.25;;;10.62;67.96
13235;BME280;6683;48.506;9.050;2024-01-30T12:25:29;99459.69;;;10.67;68.16
13235;BME280;6683;48.506;9.050;2024-01-30T12:28:32;99455.75;;;10.71;68.23
13235;BME280;6683;48.506;9.050;2024-01-30T12:31:36;99462.06;;;10.78;68.28
13235;BME280;6683;48.506;9.050;2024-01-30T12:34:41;99457.66;;;10.86;68.50
13235;BME280;6683;48.506;9.050;2024-01-30T12:37:44;99459.88;;;10.99;68.25
13235;BME280;6683;48.506;9.050;2024-01-30T12:40:46;99452.84;;;11.15;68.28
13235;BME280;6683;48.506;9.050;2024-01-30T12:43:48;99453.25;;;11.37;68.37
13235;BME280;6683;48.506;9.050;2024-01-30T12:46:52;99456.59;;;11.63;67.72
13235;BME280;6683;48.506;9.050;2024-01-30T12:49:54;99450.22;;;11.89;67.61
13235;BME280;6683;48.506;9.050;2024-01-30T12:52:56;99450.25;;;12.22;67.10
13235;BME280;6683;48.506;9.050;2024-01-30T12:55:59;99449.41;;;12.53;66.64
13235;BME280;6683;48.506;9.050;2024-01-30T12:59:01;99455.47;;;12.70;66.02
13235;BME280;6683;48.506;9.050;2024-01-30T13:02:06;99451.00;;;12.70;65.79
13235;BME280;6683;48.506;9.050;2024-01-30T13:05:09;99447.38;;;12.63;65.88
13235;BME280;6683;48.506;9.050;2024-01-30T13:08:11;99452.34;;;12.58;66.17
13235;BME280;6683;48.506;9.050;2024-01-30T13:11:13;99450.19;;;12.54;65.99
13235;BME280;6683;48.506;9.050;2024-01-30T13:14:15;99449.88;;;12.49;66.44
13235;BME280;6683;48.506;9.050;2024-01-30T13:17:19;99445.56;;;12.48;66.26
13235;BME280;6683;48.506;9.050;2024-01-30T13:20:21;99451.88;;;12.47;66.22
13235;BME280;6683;48.506;9.050;2024-01-30T13:23:23;99459.16;;;12.45;66.39
13235;BME280;6683;48.506;9.050;2024-01-30T13:26:25;99456.34;;;12.46;66.39
13235;BME280;6683;48.506;9.050;2024-01-30T13:29:27;99451.69;;;12.48;66.40
13235;BME280;6683;48.506;9.050;2024-01-30T13:32:31;99457.00;;;12.48;66.26
13235;BME280;6683;48.506;9.050;2024-01-30T13:35:33;99455.19;;;12.49;66.00
13235;BME280;6683;48.506;9.050;2024-01-30T13:38:35;99461.97;;;12.51;66.11
13235;BME280;6683;48.506;9.050;2024-01-30T13:41:37;99451.03;;;12.54;65.92
13235;BME280;6683;48.506;9.050;2024-01-30T13:44:39;99448.19;;;12.56;66.21
13235;BME280;6683;48.506;9.050;2024-01-30T13:47:43;99439.94;;;12.59;66.29
13235;BME280;6683;48.506;9.050;2024-01-30T13:50:45;99447.19;;;12.65;66.25
13235;BME280;6683;48.506;9.050;2024-01-30T13:53:47;99444.72;;;12.71;66.30
13235;BME280;6683;48.506;9.050;2024-01-30T13:56:51;99445.69;;;12.78;66.15
13235;BME280;6683;48.506;9.050;2024-01-30T13:59:53;99441.16;;;12.87;66.02
13235;BME280;6683;48.506;9.050;2024-01-30T14:02:56;99446.63;;;12.94;66.14
13235;BME280;6683;48.506;9.050;2024-01-30T14:05:59;99451.09;;;13.01;65.86
13235;BME280;6683;48.506;9.050;2024-01-30T14:09:02;99446.75;;;13.08;65.78
13235;BME280;6683;48.506;9.050;2024-01-30T14:12:05;99436.97;;;13.17;65.93
13235;BME280;6683;48.506;9.050;2024-01-30T14:15:08;99437.75;;;13.25;65.78
13235;BME280;6683;48.506;9.050;2024-01-30T14:18:13;99435.06;;;13.33;65.80
13235;BME280;6683;48.506;9.050;2024-01-30T14:21:15;99422.56;;;13.42;65.72
13235;BME280;6683;48.506;9.050;2024-01-30T14:24:17;99425.19;;;13.50;65.66
13235;BME280;6683;48.506;9.050;2024-01-30T14:27:19;99429.44;;;13.59;65.53
13235;BME280;6683;48.506;9.050;2024-01-30T14:30:21;99422.25;;;13.68;65.50
13235;BME280;6683;48.506;9.050;2024-01-30T14:33:25;99422.84;;;13.78;65.47
13235;BME280;6683;48.506;9.050;2024-01-30T14:36:27;99431.75;;;13.85;65.38
13235;BME280;6683;48.506;9.050;2024-01-30T14:39:29;99423.94;;;13.91;65.12
13235;BME280;6683;48.506;9.050;2024-01-30T14:42:31;99432.16;;;13.96;65.07
13235;BME280;6683;48.506;9.050;2024-01-30T14:45:33;99437.78;;;14.01;64.96
13235;BME280;6683;48.506;9.050;2024-01-30T14:48:37;99425.97;;;14.04;64.89
13235;BME280;6683;48.506;9.050;2024-01-30T14:51:39;99425.59;;;14.07;64.74
13235;BME280;6683;48.506;9.050;2024-01-30T14:54:41;99429.56;;;14.11;64.68
13235;BME280;6683;48.506;9.050;2024-01-30T14:57:44;99434.69;;;14.12;64.53
13235;BME280;6683;48.506;9.050;2024-01-30T15:00:47;99443.47;;;14.13;64.50
13235;BME280;6683;48.506;9.050;2024-01-30T15:03:50;99433.38;;;14.08;64.40
13235;BME280;6683;48.506;9.050;2024-01-30T15:06:53;99437.06;;;14.07;64.43
13235;BME280;6683;48.506;9.050;2024-01-30T15:09:56;99433.13;;;14.03;64.28
13235;BME280;6683;48.506;9.050;2024-01-30T15:12:58;99446.72;;;14.00;64.14
13235;BME280;6683;48.506;9.050;2024-01-30T15:16:00;99444.44;;;13.97;64.36
13235;BME280;6683;48.506;9.050;2024-01-30T15:19:05;99450.09;;;13.94;64.34
13235;BME280;6683;48.506;9.050;2024-01-30T15:22:07;99454.13;;;13.90;64.35
13235;BME280;6683;48.506;9.050;2024-01-30T15:25:09;99450.16;;;13.86;64.31
13235;BME280;6683;48.506;9.050;2024-01-30T15:28:11;99458.66;;;13.82;64.21
13235;BME280;6683;48.506;9.050;2024-01-30T15:31:15;99457.34;;;13.78;64.27
13235;BME280;6683;48.506;9.050;2024-01-30T15:34:18;99465.19;;;13.71;64.08
13235;BME280;6683;48.506;9.050;2024-01-30T15:37:21;99465.88;;;13.65;64.13
13235;BME280;6683;48.506;9.050;2024-01-30T15:40:23;99460.44;;;13.58;64.08
13235;BME280;6683;48.506;9.050;2024-01-30T15:43:25;99466.44;;;13.52;64.15
13235;BME280;6683;48.506;9.050;2024-01-30T15:46:27;99472.63;;;13.45;64.10
13235;BME280;6683;48.506;9.050;2024-01-30T15:49:31;99469.19;;;13.36;64.20
13235;BME280;6683;48.506;9.050;2024-01-30T15:52:33;99479.00;;;13.28;64.24
13235;BME280;6683;48.506;9.050;2024-01-30T15:55:35;99489.00;;;13.18;64.23
13235;BME280;6683;48.506;9.050;2024-01-30T15:58:37;99491.81;;;13.08;64.32
13235;BME280;6683;48.506;9.050;2024-01-30T16:01:39;99491.16;;;12.98;64.27
13235;BME280;6683;48.506;9.050;2024-01-30T16:04:43;99505.28;;;12.91;64.28
13235;BME280;6683;48.506;9.050;2024-01-30T16:07:45;99509.59;;;12.83;64.50
13235;BME280;6683;48.506;9.050;2024-01-30T16:10:47;99508.78;;;12.75;64.46
13235;BME280;6683;48.506;9.050;2024-01-30T16:13:49;99515.75;;;12.68;64.44
13235;BME280;6683;48.506;9.050;2024-01-30T16:16:53;99515.78;;;12.60;64.35
13235;BME280;6683;48.506;9.050;2024-01-30T16:19:56;99516.94;;;12.49;64.51
13235;BME280;6683;48.506;9.050;2024-01-30T16:22:58;99506.97;;;12.43;64.75
13235;BME280;6683;48.506;9.050;2024-01-30T16:26:00;99516.59;;;12.36;64.67
13235;BME280;6683;48.506;9.050;2024-01-30T16:29:02;99511.31;;;12.28;64.51
13235;BME280;6683;48.506;9.050;2024-01-30T16:32:05;99516.44;;;12.22;64.49